createdAt,value
2018-11-04T00:01:12.600Z,58.40
2018-11-04T00:04:03.741Z,58.40
2018-11-04T00:06:55.154Z,58.50
2018-11-04T00:09:46.590Z,58.60
2018-11-04T00:12:43.573Z,58.50
2018-11-04T00:15:33.962Z,58.50
2018-11-04T00:18:22.848Z,58.50
2018-11-04T00:21:14.215Z,58.70
2018-11-04T00:24:06.512Z,58.60
2018-11-04T00:26:57.554Z,58.60
2018-11-04T00:29:49.015Z,58.50
2018-11-04T00:32:40.066Z,58.60
2018-11-04T00:35:31.370Z,58.60
2018-11-04T00:38:22.387Z,58.50
2018-11-04T00:41:01.884Z,58.50
2018-11-04T00:43:53.215Z,58.60
2018-11-04T00:46:44.305Z,58.70
2018-11-04T00:49:35.573Z,58.70
2018-11-04T00:52:26.650Z,58.60
2018-11-04T00:55:17.781Z,58.60
2018-11-04T00:58:08.808Z,58.60
2018-11-04T01:01:00.157Z,58.70
2018-11-04T01:03:51.497Z,58.70
2018-11-04T01:06:42.700Z,58.70
2018-11-04T01:09:34.428Z,58.70
2018-11-04T01:12:25.492Z,58.60
2018-11-04T01:15:17.622Z,58.70
2018-11-04T01:18:08.915Z,58.70
2018-11-04T01:21:00.983Z,58.70
2018-11-04T01:23:52.119Z,58.60
2018-11-04T01:26:43.541Z,58.70
2018-11-04T01:29:34.760Z,58.70
2018-11-04T01:32:26.205Z,58.80
2018-11-04T01:35:17.255Z,58.60
2018-11-04T01:38:08.705Z,58.70
2018-11-04T01:40:59.729Z,58.60
2018-11-04T01:43:54.366Z,58.70
2018-11-04T01:46:45.689Z,58.40
2018-11-04T01:49:37.039Z,58.50
2018-11-04T01:52:28.229Z,58.50
2018-11-04T01:55:19.435Z,58.50
2018-11-04T01:58:10.673Z,58.60
2018-11-04T02:01:02.037Z,58.60
2018-11-04T02:03:53.329Z,58.60
2018-11-04T02:06:44.621Z,58.60
2018-11-04T02:09:35.791Z,58.70
2018-11-04T02:12:26.798Z,58.60
2018-11-04T02:15:17.855Z,58.70
2018-11-04T02:18:09.529Z,58.70
2018-11-04T02:21:00.467Z,58.90
2018-11-04T02:23:55.642Z,59.10
2018-11-04T02:26:46.840Z,59.10
2018-11-04T02:29:41.267Z,59.00
2018-11-04T02:32:33.034Z,58.90
2018-11-04T02:35:24.993Z,58.50
2018-11-04T02:38:16.482Z,58.70
2018-11-04T02:41:08.445Z,58.90
2018-11-04T02:43:59.577Z,58.90
2018-11-04T02:46:50.917Z,59.00
2018-11-04T02:49:42.326Z,59.20
2018-11-04T02:52:36.055Z,59.20
2018-11-04T02:55:27.694Z,59.30
2018-11-04T02:58:19.079Z,59.30
2018-11-04T03:01:10.942Z,59.20
2018-11-04T03:04:02.415Z,59.20
2018-11-04T03:06:53.714Z,59.20
2018-11-04T03:09:45.224Z,59.30
2018-11-04T03:12:36.292Z,59.30
2018-11-04T03:15:27.654Z,59.20
2018-11-04T03:18:19.046Z,59.10
2018-11-04T03:21:11.197Z,59.10
2018-11-04T03:24:02.300Z,59.30
2018-11-04T03:26:53.495Z,59.40
2018-11-04T03:29:44.762Z,59.30
2018-11-04T03:32:37.195Z,59.00
2018-11-04T03:35:28.232Z,59.10
2018-11-04T03:38:19.655Z,59.30
2018-11-04T03:41:13.707Z,59.20
2018-11-04T03:44:08.878Z,59.20
2018-11-04T03:47:00.288Z,59.30
2018-11-04T03:49:51.773Z,59.40
2018-11-04T03:52:43.994Z,59.40
2018-11-04T03:55:36.148Z,59.10
2018-11-04T03:58:27.551Z,59.40
2018-11-04T04:01:19.331Z,58.90
2018-11-04T04:04:10.887Z,58.90
2018-11-04T04:07:02.895Z,59.40
2018-11-04T04:09:54.217Z,59.40
2018-11-04T04:12:46.055Z,59.10
2018-11-04T04:15:37.408Z,59.20
2018-11-04T04:18:29.156Z,59.00
2018-11-04T04:21:20.438Z,59.20
2018-11-04T04:24:12.893Z,59.40
2018-11-04T04:27:04.436Z,59.00
2018-11-04T04:29:56.015Z,59.20
2018-11-04T04:32:50.416Z,59.20
2018-11-04T04:35:42.813Z,59.30
2018-11-04T04:38:33.994Z,59.00
2018-11-04T04:41:25.817Z,59.30
2018-11-04T04:44:17.440Z,59.20
2018-11-04T04:47:08.649Z,59.30
2018-11-04T04:50:00.048Z,59.50
2018-11-04T04:52:51.074Z,59.50
2018-11-04T04:55:42.213Z,59.30
2018-11-04T04:58:33.586Z,59.40
2018-11-04T05:01:24.984Z,59.20
2018-11-04T05:04:16.297Z,59.30
2018-11-04T05:07:07.758Z,59.60
2018-11-04T05:09:58.681Z,59.30
2018-11-04T05:12:49.992Z,59.00
2018-11-04T05:15:41.290Z,59.50
2018-11-04T05:18:32.374Z,59.40
2018-11-04T05:21:26.628Z,59.20
2018-11-04T05:24:17.552Z,59.60
2018-11-04T05:27:08.505Z,59.40
2018-11-04T05:29:59.754Z,59.20
2018-11-04T05:32:50.695Z,59.50
2018-11-04T05:35:41.794Z,59.50
2018-11-04T05:38:32.873Z,59.60
2018-11-04T05:41:23.873Z,59.20
2018-11-04T05:44:15.494Z,59.20
2018-11-04T05:47:06.948Z,59.60
2018-11-04T05:49:58.795Z,59.70
2018-11-04T05:52:49.811Z,59.30
2018-11-04T05:55:41.659Z,59.30
2018-11-04T05:58:33.564Z,59.70
2018-11-04T06:01:25.541Z,59.70
2018-11-04T06:04:17.374Z,59.30
2018-11-04T06:07:09.298Z,59.20
2018-11-04T06:10:01.538Z,59.20
2018-11-04T06:12:52.711Z,59.50
2018-11-04T06:15:44.508Z,59.60
2018-11-04T06:18:37.396Z,59.80
2018-11-04T06:21:28.804Z,59.50
2018-11-04T06:24:20.076Z,59.60
2018-11-04T06:27:11.697Z,59.60
2018-11-04T06:30:03.405Z,59.80
2018-11-04T06:32:55.376Z,59.40
2018-11-04T06:35:46.544Z,59.60
2018-11-04T06:38:38.156Z,59.60
2018-11-04T06:41:29.769Z,59.30
2018-11-04T06:44:21.536Z,59.60
2018-11-04T06:47:13.610Z,59.50
2018-11-04T06:50:05.530Z,59.60
2018-11-04T06:52:57.218Z,58.80
2018-11-04T06:55:49.095Z,58.70
2018-11-04T06:58:40.868Z,58.50
2018-11-04T07:01:32.106Z,59.20
2018-11-04T07:04:32.549Z,59.50
2018-11-04T07:07:24.147Z,59.40
2018-11-04T07:10:15.702Z,59.30
2018-11-04T07:13:07.124Z,59.30
2018-11-04T07:15:58.273Z,59.20
2018-11-04T07:18:49.966Z,59.10
2018-11-04T07:21:41.097Z,59.20
2018-11-04T07:24:32.378Z,59.10
2018-11-04T07:27:23.602Z,58.90
2018-11-04T07:30:16.140Z,58.90
2018-11-04T07:33:07.781Z,59.20
2018-11-04T07:35:59.135Z,58.90
2018-11-04T07:38:50.529Z,59.00
2018-11-04T07:41:44.843Z,58.70
2018-11-04T07:44:36.219Z,58.90
2018-11-04T07:47:29.781Z,58.90
2018-11-04T07:50:20.876Z,58.60
2018-11-04T07:53:11.807Z,58.60
2018-11-04T07:56:03.227Z,58.60
2018-11-04T07:58:54.380Z,58.40
2018-11-04T08:01:45.496Z,58.40
2018-11-04T08:04:37.547Z,58.80
2018-11-04T08:07:28.621Z,58.70
2018-11-04T08:10:19.620Z,58.70
2018-11-04T08:13:10.885Z,58.80
2018-11-04T08:16:02.475Z,58.60
2018-11-04T08:18:53.491Z,58.50
2018-11-04T08:21:44.761Z,58.70
2018-11-04T08:24:36.098Z,58.60
2018-11-04T08:27:28.555Z,58.80
2018-11-04T08:30:19.971Z,58.80
2018-11-04T08:33:11.648Z,58.50
2018-11-04T08:36:03.681Z,58.60
2018-11-04T08:38:56.169Z,58.60
2018-11-04T08:41:50.749Z,58.50
2018-11-04T08:44:43.225Z,58.60
2018-11-04T08:47:35.108Z,58.40
2018-11-04T08:50:26.405Z,58.40
2018-11-04T08:53:18.521Z,58.20
2018-11-04T08:56:10.142Z,58.30
2018-11-04T08:59:01.962Z,58.70
2018-11-04T09:01:53.661Z,58.50
2018-11-04T09:04:44.715Z,58.50
2018-11-04T09:07:41.981Z,58.50
2018-11-04T09:10:33.599Z,58.50
2018-11-04T09:13:27.370Z,58.60
2018-11-04T09:16:25.017Z,58.50
2018-11-04T09:19:12.827Z,58.50
2018-11-04T09:22:04.416Z,58.50
2018-11-04T09:24:55.201Z,58.30
2018-11-04T09:27:46.413Z,58.20
2018-11-04T09:30:37.750Z,58.30
2018-11-04T09:33:29.474Z,58.50
2018-11-04T09:36:21.978Z,58.50
2018-11-04T09:39:17.567Z,58.50
2018-11-04T09:42:04.958Z,58.20
2018-11-04T09:44:56.334Z,58.20
2018-11-04T09:47:47.452Z,58.20
2018-11-04T09:50:41.765Z,58.10
2018-11-04T09:53:32.998Z,58.10
2018-11-04T09:56:24.487Z,58.20
2018-11-04T09:59:15.460Z,57.90
2018-11-04T10:02:06.805Z,57.90
2018-11-04T10:04:58.166Z,58.20
2018-11-04T10:07:49.284Z,58.10
2018-11-04T10:10:40.428Z,58.20
2018-11-04T10:13:31.796Z,58.10
2018-11-04T10:16:23.242Z,57.80
2018-11-04T10:19:14.519Z,57.60
2018-11-04T10:22:06.137Z,58.10
2018-11-04T10:25:00.430Z,58.00
2018-11-04T10:27:52.939Z,58.10
2018-11-04T10:30:44.312Z,58.10
2018-11-04T10:33:39.862Z,57.90
2018-11-04T10:36:31.152Z,58.00
2018-11-04T10:39:22.807Z,58.00
2018-11-04T10:42:13.965Z,58.00
2018-11-04T10:45:05.820Z,58.00
2018-11-04T10:47:57.209Z,57.90
2018-11-04T10:50:52.277Z,57.90
2018-11-04T10:53:43.614Z,57.80
2018-11-04T10:56:36.312Z,57.80
2018-11-04T10:59:27.403Z,57.80
2018-11-04T11:02:19.401Z,57.90
2018-11-04T11:05:11.308Z,57.80
2018-11-04T11:08:02.430Z,57.60
2018-11-04T11:10:54.024Z,57.60
2018-11-04T11:13:45.268Z,57.60
2018-11-04T11:16:36.384Z,57.40
2018-11-04T11:19:27.513Z,57.30
2018-11-04T11:22:18.579Z,57.40
2018-11-04T11:25:10.636Z,57.50
2018-11-04T11:28:02.585Z,57.50
2018-11-04T11:30:53.934Z,57.30
2018-11-04T11:33:45.549Z,57.30
2018-11-04T11:36:37.380Z,57.50
2018-11-04T11:39:28.775Z,57.00
2018-11-04T11:42:22.591Z,57.20
2018-11-04T11:45:11.933Z,57.20
2018-11-04T11:48:03.635Z,57.20
2018-11-04T11:50:54.609Z,57.20
2018-11-04T11:53:46.020Z,57.30
2018-11-04T11:56:36.995Z,57.40
2018-11-04T11:59:28.522Z,57.50
2018-11-04T12:02:22.802Z,57.40
2018-11-04T12:05:14.028Z,57.60
2018-11-04T12:08:05.287Z,57.60
2018-11-04T12:10:56.855Z,57.70
2018-11-04T12:13:48.044Z,57.80
2018-11-04T12:16:39.381Z,57.80
2018-11-04T12:19:30.841Z,57.80
2018-11-04T12:22:22.179Z,57.80
2018-11-04T12:25:14.687Z,57.90
2018-11-04T12:28:06.738Z,57.90
2018-11-04T12:31:00.789Z,57.90
2018-11-04T12:33:52.170Z,58.00
2018-11-04T12:36:43.278Z,57.90
2018-11-04T12:39:34.376Z,57.60
2018-11-04T12:42:25.888Z,57.70
2018-11-04T12:45:17.368Z,57.60
2018-11-04T12:48:11.451Z,57.80
2018-11-04T12:51:03.466Z,57.90
2018-11-04T12:53:54.851Z,57.90
2018-11-04T12:56:46.472Z,58.00
2018-11-04T12:59:37.934Z,57.90
2018-11-04T13:02:30.416Z,57.90
2018-11-04T13:05:21.473Z,57.80
2018-11-04T13:08:12.878Z,57.70
2018-11-04T13:11:04.694Z,57.90
2018-11-04T13:13:56.504Z,57.70
2018-11-04T13:16:47.989Z,57.40
2018-11-04T13:19:39.860Z,57.50
2018-11-04T13:22:32.032Z,57.40
2018-11-04T13:25:23.536Z,57.60
2018-11-04T13:28:15.132Z,57.60
2018-11-04T13:31:08.479Z,57.70
2018-11-04T13:34:00.168Z,57.50
2018-11-04T13:36:51.895Z,57.50
2018-11-04T13:39:43.542Z,57.40
2018-11-04T13:42:35.339Z,57.50
2018-11-04T13:45:27.198Z,57.50
2018-11-04T13:48:18.671Z,57.50
2018-11-04T13:51:10.498Z,57.60
2018-11-04T13:54:11.529Z,57.60
2018-11-04T13:56:54.365Z,57.40
2018-11-04T13:59:45.864Z,57.70
2018-11-04T14:02:37.407Z,57.70
2018-11-04T14:05:28.822Z,57.60
2018-11-04T14:08:20.720Z,57.70
2018-11-04T14:11:12.625Z,57.70
2018-11-04T14:14:03.876Z,57.60
2018-11-04T14:16:55.357Z,57.70
2018-11-04T14:19:47.676Z,57.80
2018-11-04T14:22:39.406Z,57.70
2018-11-04T14:25:30.928Z,57.80
2018-11-04T14:28:22.574Z,57.80
2018-11-04T14:31:14.852Z,57.80
2018-11-04T14:34:05.884Z,57.80
2018-11-04T14:36:56.910Z,57.70
2018-11-04T14:39:47.963Z,57.70
2018-11-04T14:42:39.296Z,57.70
2018-11-04T14:45:30.341Z,57.60
2018-11-04T14:48:21.593Z,57.60
2018-11-04T14:51:12.853Z,57.60
2018-11-04T14:54:03.811Z,57.60
2018-11-04T14:56:54.824Z,57.60
2018-11-04T14:59:46.142Z,57.70
2018-11-04T15:02:37.101Z,57.70
2018-11-04T15:05:30.899Z,57.80
2018-11-04T15:08:21.853Z,57.70
2018-11-04T15:11:13.767Z,57.70
2018-11-04T15:14:06.023Z,57.70
2018-11-04T15:16:57.689Z,57.70
2018-11-04T15:19:52.940Z,57.70
2018-11-04T15:22:54.039Z,57.60
2018-11-04T15:25:45.872Z,57.50
2018-11-04T15:28:37.215Z,57.60
2018-11-04T15:31:30.098Z,57.50
2018-11-04T15:34:21.531Z,57.60
2018-11-04T15:37:12.867Z,57.40
2018-11-04T15:40:04.711Z,57.50
2018-11-04T15:42:56.635Z,57.50
2018-11-04T15:45:48.071Z,57.60
2018-11-04T15:48:40.011Z,57.40
2018-11-04T15:51:32.127Z,57.50
2018-11-04T15:54:23.674Z,57.40
2018-11-04T15:57:15.658Z,57.40
2018-11-04T16:00:07.333Z,57.40
2018-11-04T16:02:59.031Z,57.40
2018-11-04T16:05:50.649Z,57.30
2018-11-04T16:08:42.185Z,57.30
2018-11-04T16:11:34.342Z,57.40
2018-11-04T16:14:28.502Z,57.40
2018-11-04T16:17:22.067Z,57.20
2018-11-04T16:20:14.719Z,57.20
2018-11-04T16:23:09.840Z,57.30
2018-11-04T16:25:58.171Z,57.20
2018-11-04T16:28:49.623Z,57.10
2018-11-04T16:31:42.006Z,57.30
2018-11-04T16:34:34.498Z,57.20
2018-11-04T16:37:26.101Z,57.10
2018-11-04T16:40:17.499Z,57.20
2018-11-04T16:43:09.264Z,56.90
2018-11-04T16:46:00.671Z,57.00
2018-11-04T16:48:51.842Z,57.00
2018-11-04T16:51:43.430Z,57.00
2018-11-04T16:54:35.065Z,57.00
2018-11-04T16:57:29.258Z,56.90
2018-11-04T17:00:20.537Z,57.00
2018-11-04T17:03:11.853Z,57.00
2018-11-04T17:06:03.180Z,57.00
2018-11-04T17:08:57.737Z,57.00
2018-11-04T17:11:48.887Z,57.00
2018-11-04T17:14:41.586Z,57.00
2018-11-04T17:17:36.525Z,56.90
2018-11-04T17:20:27.841Z,56.80
2018-11-04T17:23:26.490Z,56.80
2018-11-04T17:26:17.838Z,56.90
2018-11-04T17:29:08.972Z,56.90
2018-11-04T17:32:00.718Z,56.90
2018-11-04T17:34:51.856Z,56.90
2018-11-04T17:37:44.501Z,56.90
2018-11-04T17:40:35.895Z,56.90
2018-11-04T17:43:26.837Z,56.90
2018-11-04T17:46:18.930Z,56.90
2018-11-04T17:49:11.821Z,56.70
2018-11-04T17:52:07.129Z,56.80
2018-11-04T17:54:58.403Z,56.70
2018-11-04T17:57:49.643Z,56.90
2018-11-04T18:00:44.507Z,56.80
2018-11-04T18:03:40.759Z,56.70
2018-11-04T18:06:31.858Z,56.70
2018-11-04T18:09:23.714Z,56.80
2018-11-04T18:12:18.678Z,56.60
2018-11-04T18:15:10.503Z,56.60
2018-11-04T18:18:01.878Z,56.60
2018-11-04T18:20:54.091Z,56.40
2018-11-04T18:23:45.400Z,56.40
2018-11-04T18:26:36.742Z,56.50
2018-11-04T18:29:28.046Z,56.50
2018-11-04T18:32:19.630Z,56.40
2018-11-04T18:35:12.026Z,56.50
2018-11-04T18:41:12.821Z,56.20
2018-11-04T18:44:04.335Z,56.10
2018-11-04T18:46:55.666Z,56.10
2018-11-04T18:49:49.976Z,56.00
2018-11-04T18:52:41.678Z,56.10
2018-11-04T18:55:33.101Z,56.00
2018-11-04T18:58:24.807Z,56.00
2018-11-04T19:01:18.980Z,55.90
2018-11-04T19:04:10.424Z,55.70
2018-11-04T19:07:01.983Z,56.00
2018-11-04T19:09:53.724Z,55.80
2018-11-04T19:12:46.264Z,55.80
2018-11-04T19:15:40.713Z,55.70
2018-11-04T19:18:32.255Z,55.70
2018-11-04T19:21:27.955Z,56.00
2018-11-04T19:24:19.227Z,56.60
2018-11-04T19:27:11.094Z,56.60
2018-11-04T19:30:02.303Z,56.40
2018-11-04T19:32:53.964Z,56.30
2018-11-04T19:35:45.339Z,56.40
2018-11-04T19:38:36.405Z,56.90
2018-11-04T19:41:27.665Z,56.80
2018-11-04T19:44:19.159Z,56.90
2018-11-04T19:47:10.579Z,56.90
2018-11-04T19:50:01.668Z,56.40
2018-11-04T19:52:53.421Z,56.40
2018-11-04T19:55:45.081Z,56.60
2018-11-04T19:58:36.403Z,56.90
2018-11-04T20:01:29.022Z,56.30
2018-11-04T20:04:20.477Z,56.20
2018-11-04T20:07:11.917Z,56.20
2018-11-04T20:10:03.267Z,56.40
2018-11-04T20:13:10.929Z,56.30
2018-11-04T20:16:03.729Z,56.40
2018-11-04T20:19:12.013Z,56.30
2018-11-04T20:22:06.852Z,56.70
2018-11-04T20:25:11.137Z,56.60
2018-11-04T20:28:02.594Z,56.70
2018-11-04T20:30:53.893Z,56.60
2018-11-04T20:33:44.943Z,56.90
2018-11-04T20:39:44.017Z,57.10
2018-11-04T20:42:35.476Z,57.10
2018-11-04T20:45:26.644Z,57.20
2018-11-04T20:48:34.276Z,57.20
2018-11-04T20:51:25.964Z,57.10
2018-11-04T20:54:17.305Z,57.10
2018-11-04T20:57:24.741Z,57.10
2018-11-04T21:00:16.506Z,56.80
2018-11-04T21:03:07.963Z,56.70
2018-11-04T21:05:59.327Z,56.60
2018-11-04T21:08:50.355Z,56.40
2018-11-04T21:11:41.622Z,56.40
2018-11-04T21:14:35.239Z,56.30
2018-11-04T21:17:26.180Z,56.10
2018-11-04T21:20:17.208Z,56.60
2018-11-04T21:23:11.841Z,56.40
2018-11-04T21:25:59.550Z,56.40
2018-11-04T21:28:50.915Z,56.50
2018-11-04T21:31:41.894Z,56.70
2018-11-04T21:34:32.882Z,56.80
2018-11-04T21:37:26.988Z,56.90
2018-11-04T21:40:17.869Z,56.90
2018-11-04T21:43:08.858Z,57.00
2018-11-04T21:46:00.023Z,57.10
2018-11-04T21:48:51.357Z,57.00
2018-11-04T21:51:42.362Z,57.30
2018-11-04T21:54:33.482Z,57.50
2018-11-04T21:57:29.861Z,57.70
2018-11-04T22:00:19.538Z,57.60
2018-11-04T22:03:11.031Z,57.60
2018-11-04T22:06:01.902Z,57.40
2018-11-04T22:08:52.956Z,57.50
2018-11-04T22:11:44.176Z,57.90
2018-11-04T22:14:35.546Z,57.70
2018-11-04T22:17:26.490Z,57.70
2018-11-04T22:20:17.589Z,57.80
2018-11-04T22:23:09.219Z,57.60
2018-11-04T22:26:00.574Z,57.40
2018-11-04T22:28:51.705Z,57.50
2018-11-04T22:31:42.809Z,57.30
2018-11-04T22:34:34.215Z,57.20
2018-11-04T22:37:25.583Z,57.40
2018-11-04T22:40:17.807Z,57.50
2018-11-04T22:43:11.647Z,57.40
2018-11-04T22:46:03.097Z,57.90
2018-11-04T22:48:54.191Z,57.90
2018-11-04T22:51:45.566Z,57.80
2018-11-04T22:54:37.038Z,57.80
2018-11-04T22:57:28.448Z,57.80
2018-11-04T23:00:36.076Z,57.70
2018-11-04T23:03:27.525Z,57.60
2018-11-04T23:06:18.868Z,57.60
2018-11-04T23:09:11.703Z,57.50
2018-11-04T23:12:03.186Z,57.90
2018-11-04T23:14:54.272Z,57.60
2018-11-04T23:17:45.499Z,57.90
2018-11-04T23:20:36.504Z,57.40
2018-11-04T23:23:27.495Z,57.70
2018-11-04T23:26:21.308Z,57.60
2018-11-04T23:29:10.041Z,57.60
2018-11-04T23:32:01.363Z,57.60
2018-11-04T23:34:55.290Z,57.70
2018-11-04T23:37:47.067Z,57.70
2018-11-04T23:40:38.431Z,57.70
2018-11-04T23:43:32.637Z,57.60
2018-11-04T23:46:23.810Z,57.60
2018-11-04T23:49:15.285Z,57.80
2018-11-04T23:52:06.412Z,57.80
2018-11-04T23:54:57.544Z,57.90
2018-11-04T23:57:48.610Z,57.90
